Terminal Aerodrome Forecast
Issued by NWS Mt. Holly, NJ

Home | Current Version | Previous Version | Text Only | Print | Product List | Glossary On
Versions: 1 2 3 4 5 6 7 8 9 10 11 12 13 14 15 16 17 18 19 20 21 22 23
000
FTUS41 KPHI 011721
TAFABE
TAF
KABE 011721Z 0118/0218 06008KT P6SM OVC010
      TEMPO 0119/0123 4SM -SHRA OVC008
     FM012300 06008KT P6SM VCSH OVC006
     FM020100 06005KT 6SM BR OVC005
      TEMPO 0203/0207 3SM -SHRA BR OVC004
     FM020700 06003KT 2SM BR OVC004
     FM021400 08005KT P6SM OVC010=

USA.gov is the U.S. government's official web portal to all federal, state and local government web resources and services.